Terminal Aerodrome Forecast
Issued by NWS

Home | Current Version | Previous Version | Text Only | Print | Product List | Glossary On
Versions: 1 2 3 4 5 6 7 8 9 10 11 12 13 14 15 16 17 18 19 20
510
FTUS44 KLZK 230535
TAFHOT
TAF
KHOT 230535Z 2306/2406 34004KT P6SM SKC
     FM230900 VRB05KT 6SM BR SCT100
      TEMPO 2310/2313 3SM BR FEW005
     FM231500 29006KT P6SM SCT250
     FM231800 26008G18KT P6SM SCT250
     FM240300 32008G18KT P6SM SCT100 SCT250=

USA.gov is the U.S. government's official web portal to all federal, state and local government web resources and services.